VLG2AT EGKK-EHAM
Flight info
| Callsign | VLG2AT |
|---|---|
| Flight time | 0h 44m |
| Altitude | 29000 |
| Route | FRANE M604 GASBA M197 REDFA |
| Aircraft | A320/M-SDE3FGHIRWY/LB1 |
Departure
| Time | 2026-05-06 16:46 |
|---|---|
| Airport | London Gatwick Airport (EGKK) |
Arrival
| Time | 2026-05-06 17:30 |
|---|---|
| Airport | Amsterdam Airport Schiphol (EHAM) |
| Time | Latitude | Longitude | Altitude | Speed | Heading |
|---|---|---|---|---|---|
| 2026-05-06 16:23 | 51.15743 | -0.16865 | 205 ft | 0 kts | 32° |
| 2026-05-06 16:28 | 51.15742 | -0.16865 | 205 ft | 0 kts | 32° |
| 2026-05-06 16:32 | 51.15741 | -0.16866 | 205 ft | 1 kts | 32° |
| 2026-05-06 16:33 | 51.15727 | -0.16880 | 217 ft | 3 kts | 30° |
| 2026-05-06 16:33 | 51.15709 | -0.16896 | 209 ft | 3 kts | 26° |
| 2026-05-06 16:33 | 51.15691 | -0.16909 | 215 ft | 3 kts | 17° |
| 2026-05-06 16:34 | 51.15663 | -0.16912 | 211 ft | 2 kts | 264° |
| 2026-05-06 16:34 | 51.15663 | -0.16909 | 210 ft | 0 kts | 257° |
| 2026-05-06 16:36 | 51.15659 | -0.16929 | 216 ft | 6 kts | 254° |
| 2026-05-06 16:36 | 51.15650 | -0.16987 | 212 ft | 7 kts | 256° |
| 2026-05-06 16:36 | 51.15632 | -0.17111 | 216 ft | 12 kts | 254° |
| 2026-05-06 16:36 | 51.15612 | -0.17227 | 205 ft | 0 kts | 259° |
| 2026-05-06 16:37 | 51.15609 | -0.17249 | 210 ft | 12 kts | 259° |
| 2026-05-06 16:37 | 51.15527 | -0.17311 | 216 ft | 9 kts | 152° |
| 2026-05-06 16:37 | 51.15472 | -0.17287 | 213 ft | 8 kts | 168° |
| 2026-05-06 16:37 | 51.15447 | -0.17280 | 212 ft | 0 kts | 171° |
| 2026-05-06 16:38 | 51.15376 | -0.17259 | 214 ft | 14 kts | 167° |
| 2026-05-06 16:38 | 51.15305 | -0.17317 | 212 ft | 11 kts | 215° |
| 2026-05-06 16:38 | 51.15256 | -0.17344 | 213 ft | 1 kts | 212° |
| 2026-05-06 16:39 | 51.15264 | -0.17369 | 212 ft | 3 kts | 333° |
| 2026-05-06 16:39 | 51.15267 | -0.17371 | 211 ft | 0 kts | 333° |
| 2026-05-06 16:39 | 51.15288 | -0.17395 | 208 ft | 11 kts | 313° |
| 2026-05-06 16:39 | 51.15296 | -0.17514 | 205 ft | 11 kts | 257° |
| 2026-05-06 16:40 | 51.15280 | -0.17623 | 205 ft | 9 kts | 257° |
| 2026-05-06 16:40 | 51.15266 | -0.17718 | 211 ft | 8 kts | 257° |
| 2026-05-06 16:40 | 51.15254 | -0.17801 | 209 ft | 8 kts | 257° |
| 2026-05-06 16:40 | 51.15233 | -0.17941 | 209 ft | 13 kts | 257° |
| 2026-05-06 16:41 | 51.15213 | -0.18077 | 212 ft | 12 kts | 257° |
| 2026-05-06 16:41 | 51.15196 | -0.18197 | 208 ft | 10 kts | 259° |
| 2026-05-06 16:41 | 51.15175 | -0.18376 | 205 ft | 21 kts | 260° |
| 2026-05-06 16:41 | 51.15150 | -0.18611 | 205 ft | 23 kts | 261° |
| 2026-05-06 16:42 | 51.15111 | -0.18862 | 214 ft | 24 kts | 253° |
| 2026-05-06 16:42 | 51.15073 | -0.19130 | 212 ft | 26 kts | 258° |
| 2026-05-06 16:42 | 51.15038 | -0.19416 | 208 ft | 27 kts | 259° |
| 2026-05-06 16:42 | 51.15001 | -0.19717 | 205 ft | 28 kts | 258° |
| 2026-05-06 16:43 | 51.14958 | -0.20032 | 205 ft | 30 kts | 258° |
| 2026-05-06 16:43 | 51.14913 | -0.20357 | 217 ft | 31 kts | 256° |
| 2026-05-06 16:43 | 51.14864 | -0.20695 | 211 ft | 32 kts | 259° |
| 2026-05-06 16:43 | 51.14814 | -0.21042 | 209 ft | 33 kts | 253° |
| 2026-05-06 16:44 | 51.14752 | -0.21362 | 213 ft | 20 kts | 238° |
| 2026-05-06 16:44 | 51.14682 | -0.21374 | 214 ft | 9 kts | 148° |
| 2026-05-06 16:44 | 51.14627 | -0.21328 | 209 ft | 8 kts | 165° |
| 2026-05-06 16:44 | 51.14568 | -0.21297 | 208 ft | 10 kts | 150° |
| 2026-05-06 16:45 | 51.14524 | -0.21203 | 214 ft | 20 kts | 102° |
| 2026-05-06 16:45 | 51.14598 | -0.20567 | 217 ft | 95 kts | 75° |
| 2026-05-06 16:45 | 51.14803 | -0.19238 | 213 ft | 150 kts | 73° |
| 2026-05-06 16:45 | 51.15061 | -0.17537 | 695 ft | 163 kts | 76° |
| 2026-05-06 16:46 | 51.15247 | -0.15699 | 1457 ft | 172 kts | 80° |
| 2026-05-06 16:46 | 51.15447 | -0.13800 | 2211 ft | 176 kts | 77° |
| 2026-05-06 16:46 | 51.15687 | -0.11831 | 2824 ft | 184 kts | 76° |
| 2026-05-06 16:46 | 51.15959 | -0.09828 | 3461 ft | 188 kts | 75° |
| 2026-05-06 16:47 | 51.16218 | -0.07757 | 4092 ft | 193 kts | 77° |
| 2026-05-06 16:47 | 51.16398 | -0.05581 | 4650 ft | 204 kts | 82° |
| 2026-05-06 16:47 | 51.16582 | -0.03236 | 4932 ft | 223 kts | 82° |
| 2026-05-06 16:47 | 51.16689 | -0.00629 | 4997 ft | 241 kts | 85° |
| 2026-05-06 16:48 | 51.16708 | 0.00280 | 5007 ft | 248 kts | 85° |
| 2026-05-06 16:48 | 51.16732 | 0.03463 | 4963 ft | 255 kts | 88° |
| 2026-05-06 16:49 | 51.16713 | 0.06378 | 5008 ft | 265 kts | 88° |
| 2026-05-06 16:49 | 51.16671 | 0.09301 | 5007 ft | 267 kts | 89° |
| 2026-05-06 16:49 | 51.16617 | 0.12252 | 4998 ft | 267 kts | 89° |
| 2026-05-06 16:49 | 51.16560 | 0.15212 | 4996 ft | 266 kts | 89° |
| 2026-05-06 16:50 | 51.16533 | 0.18167 | 5006 ft | 266 kts | 88° |
| 2026-05-06 16:50 | 51.16538 | 0.21113 | 5002 ft | 266 kts | 87° |
| 2026-05-06 16:50 | 51.16549 | 0.24061 | 5009 ft | 266 kts | 87° |
| 2026-05-06 16:50 | 51.16561 | 0.27009 | 5003 ft | 266 kts | 87° |
| 2026-05-06 16:51 | 51.16571 | 0.29948 | 5005 ft | 265 kts | 87° |
| 2026-05-06 16:51 | 51.16579 | 0.32842 | 5006 ft | 265 kts | 87° |
| 2026-05-06 16:51 | 51.16586 | 0.35783 | 5006 ft | 265 kts | 87° |
| 2026-05-06 16:51 | 51.16592 | 0.38771 | 5046 ft | 268 kts | 87° |
| 2026-05-06 16:52 | 51.16595 | 0.41725 | 5944 ft | 270 kts | 87° |
| 2026-05-06 16:52 | 51.16595 | 0.44742 | 6893 ft | 274 kts | 88° |
| 2026-05-06 16:52 | 51.16595 | 0.47804 | 7795 ft | 278 kts | 88° |
| 2026-05-06 16:52 | 51.16776 | 0.50880 | 8661 ft | 280 kts | 71° |
| 2026-05-06 16:53 | 51.17715 | 0.53631 | 9524 ft | 282 kts | 46° |
| 2026-05-06 16:53 | 51.19278 | 0.55472 | 10303 ft | 285 kts | 22° |
| 2026-05-06 16:53 | 51.21209 | 0.56337 | 11093 ft | 288 kts | 12° |
| 2026-05-06 16:53 | 51.23183 | 0.57058 | 11900 ft | 292 kts | 12° |
| 2026-05-06 16:54 | 51.25241 | 0.57813 | 12725 ft | 297 kts | 13° |
| 2026-05-06 16:54 | 51.27266 | 0.58562 | 13517 ft | 301 kts | 13° |
| 2026-05-06 16:54 | 51.29316 | 0.59323 | 14236 ft | 305 kts | 13° |
| 2026-05-06 16:54 | 51.31404 | 0.60101 | 14958 ft | 308 kts | 13° |
| 2026-05-06 16:55 | 51.33508 | 0.60886 | 15685 ft | 311 kts | 13° |
| 2026-05-06 16:55 | 51.35627 | 0.61680 | 16408 ft | 314 kts | 13° |
| 2026-05-06 16:55 | 51.37759 | 0.62478 | 17131 ft | 317 kts | 13° |
| 2026-05-06 16:55 | 51.39913 | 0.63283 | 17646 ft | 328 kts | 13° |
| 2026-05-06 16:56 | 51.42242 | 0.64162 | 17793 ft | 348 kts | 13° |
| 2026-05-06 16:56 | 51.43901 | 0.64793 | 17907 ft | 361 kts | 13° |
| 2026-05-06 16:56 | 51.46349 | 0.65728 | 18340 ft | 370 kts | 13° |
| 2026-05-06 16:56 | 51.48904 | 0.66704 | 18876 ft | 374 kts | 13° |
| 2026-05-06 16:57 | 51.51456 | 0.67673 | 19415 ft | 378 kts | 13° |
| 2026-05-06 16:57 | 51.54042 | 0.68651 | 19959 ft | 382 kts | 13° |
| 2026-05-06 16:57 | 51.56693 | 0.69658 | 20483 ft | 386 kts | 13° |
| 2026-05-06 16:57 | 51.59325 | 0.70662 | 21020 ft | 390 kts | 13° |
| 2026-05-06 16:58 | 51.61995 | 0.71680 | 21545 ft | 393 kts | 13° |
| 2026-05-06 16:58 | 51.64324 | 0.72567 | 21993 ft | 397 kts | 13° |
| 2026-05-06 16:58 | 51.67027 | 0.73597 | 22499 ft | 400 kts | 13° |
| 2026-05-06 16:58 | 51.69752 | 0.74636 | 22993 ft | 404 kts | 13° |
| 2026-05-06 16:59 | 51.72501 | 0.75684 | 23469 ft | 408 kts | 12° |
| 2026-05-06 16:59 | 51.75238 | 0.76819 | 23872 ft | 412 kts | 18° |
| 2026-05-06 16:59 | 51.77858 | 0.78691 | 24248 ft | 416 kts | 30° |
| 2026-05-06 16:59 | 51.80277 | 0.81419 | 24624 ft | 420 kts | 40° |
| 2026-05-06 17:00 | 51.82359 | 0.84752 | 24993 ft | 423 kts | 50° |
| 2026-05-06 17:00 | 51.84114 | 0.88532 | 25363 ft | 425 kts | 58° |
| 2026-05-06 17:00 | 51.85521 | 0.92753 | 25757 ft | 427 kts | 68° |
| 2026-05-06 17:00 | 51.86509 | 0.97274 | 26165 ft | 428 kts | 74° |
| 2026-05-06 17:01 | 51.87381 | 1.01977 | 26585 ft | 430 kts | 75° |
| 2026-05-06 17:01 | 51.88226 | 1.06626 | 26995 ft | 432 kts | 75° |
| 2026-05-06 17:01 | 51.89069 | 1.11326 | 27385 ft | 434 kts | 75° |
| 2026-05-06 17:01 | 51.89908 | 1.16032 | 27761 ft | 437 kts | 75° |
| 2026-05-06 17:02 | 51.90750 | 1.20765 | 28139 ft | 439 kts | 75° |
| 2026-05-06 17:02 | 51.91599 | 1.25537 | 28514 ft | 442 kts | 76° |
| 2026-05-06 17:02 | 51.92453 | 1.30344 | 28865 ft | 444 kts | 76° |
| 2026-05-06 17:03 | 51.94143 | 1.39811 | 28978 ft | 438 kts | 76° |
| 2026-05-06 17:03 | 51.95001 | 1.44622 | 28969 ft | 449 kts | 76° |
| 2026-05-06 17:03 | 51.95875 | 1.49552 | 28974 ft | 459 kts | 76° |
| 2026-05-06 17:04 | 51.97663 | 1.59713 | 28968 ft | 476 kts | 76° |
| 2026-05-06 17:04 | 51.99483 | 1.70150 | 28972 ft | 483 kts | 76° |
| 2026-05-06 17:05 | 52.01168 | 1.80653 | 28969 ft | 483 kts | 78° |
| 2026-05-06 17:05 | 52.02766 | 1.91308 | 28968 ft | 483 kts | 78° |
| 2026-05-06 17:05 | 52.03503 | 1.96226 | 28966 ft | 469 kts | 78° |
| 2026-05-06 17:06 | 52.04271 | 2.01274 | 28855 ft | 451 kts | 78° |
| 2026-05-06 17:06 | 52.05022 | 2.06158 | 28677 ft | 435 kts | 78° |
| 2026-05-06 17:06 | 52.05747 | 2.10868 | 28280 ft | 426 kts | 78° |
| 2026-05-06 17:06 | 52.06463 | 2.15562 | 27752 ft | 421 kts | 78° |
| 2026-05-06 17:07 | 52.07159 | 2.20166 | 27181 ft | 417 kts | 78° |
| 2026-05-06 17:07 | 52.07845 | 2.24727 | 26631 ft | 414 kts | 78° |
| 2026-05-06 17:07 | 52.08525 | 2.29252 | 26079 ft | 410 kts | 78° |
| 2026-05-06 17:07 | 52.09208 | 2.33779 | 25550 ft | 407 kts | 78° |
| 2026-05-06 17:08 | 52.09877 | 2.38218 | 25007 ft | 404 kts | 78° |
| 2026-05-06 17:08 | 52.10545 | 2.42653 | 24481 ft | 401 kts | 78° |
| 2026-05-06 17:08 | 52.11231 | 2.46966 | 23989 ft | 398 kts | 73° |
| 2026-05-06 17:08 | 52.12324 | 2.51168 | 23489 ft | 397 kts | 63° |
| 2026-05-06 17:09 | 52.13741 | 2.55088 | 22902 ft | 394 kts | 60° |
| 2026-05-06 17:09 | 52.15121 | 2.58864 | 22367 ft | 391 kts | 60° |
| 2026-05-06 17:09 | 52.16499 | 2.62654 | 21861 ft | 387 kts | 60° |
| 2026-05-06 17:09 | 52.17863 | 2.66427 | 21376 ft | 384 kts | 60° |
| 2026-05-06 17:10 | 52.19210 | 2.70167 | 20902 ft | 381 kts | 60° |
| 2026-05-06 17:10 | 52.20546 | 2.73883 | 20409 ft | 378 kts | 60° |
| 2026-05-06 17:10 | 52.21874 | 2.77571 | 19946 ft | 376 kts | 60° |
| 2026-05-06 17:10 | 52.23206 | 2.81267 | 19492 ft | 373 kts | 60° |
| 2026-05-06 17:11 | 52.24530 | 2.84942 | 19034 ft | 370 kts | 60° |
| 2026-05-06 17:11 | 52.25814 | 2.88520 | 18621 ft | 367 kts | 60° |
| 2026-05-06 17:11 | 52.27099 | 2.92113 | 18196 ft | 365 kts | 59° |
| 2026-05-06 17:11 | 52.28358 | 2.95641 | 17719 ft | 363 kts | 59° |
| 2026-05-06 17:12 | 52.29625 | 2.99192 | 17237 ft | 361 kts | 59° |
| 2026-05-06 17:12 | 52.30883 | 3.02726 | 16776 ft | 358 kts | 59° |
| 2026-05-06 17:12 | 52.32128 | 3.06231 | 16323 ft | 356 kts | 59° |
| 2026-05-06 17:12 | 52.33371 | 3.09734 | 15879 ft | 354 kts | 59° |
| 2026-05-06 17:13 | 52.34621 | 3.13260 | 15428 ft | 352 kts | 59° |
| 2026-05-06 17:13 | 52.35847 | 3.16716 | 15008 ft | 350 kts | 59° |
| 2026-05-06 17:13 | 52.37052 | 3.20116 | 14598 ft | 348 kts | 59° |
| 2026-05-06 17:13 | 52.38266 | 3.23546 | 14192 ft | 346 kts | 59° |
| 2026-05-06 17:14 | 52.39467 | 3.26956 | 13778 ft | 344 kts | 59° |
| 2026-05-06 17:14 | 52.40664 | 3.30353 | 13334 ft | 342 kts | 59° |
| 2026-05-06 17:14 | 52.41849 | 3.33722 | 12914 ft | 340 kts | 59° |
| 2026-05-06 17:14 | 52.43024 | 3.37066 | 12495 ft | 337 kts | 59° |
| 2026-05-06 17:15 | 52.44180 | 3.40387 | 12088 ft | 335 kts | 62° |
| 2026-05-06 17:15 | 52.45050 | 3.43914 | 11664 ft | 333 kts | 73° |
| 2026-05-06 17:15 | 52.45591 | 3.47592 | 11250 ft | 330 kts | 76° |
| 2026-05-06 17:15 | 52.46110 | 3.51248 | 10847 ft | 328 kts | 76° |
| 2026-05-06 17:16 | 52.46630 | 3.54878 | 10446 ft | 325 kts | 76° |
| 2026-05-06 17:16 | 52.47147 | 3.58474 | 10055 ft | 323 kts | 76° |
| 2026-05-06 17:16 | 52.47656 | 3.62034 | 9844 ft | 316 kts | 76° |
| 2026-05-06 17:16 | 52.48146 | 3.65483 | 9714 ft | 304 kts | 76° |
| 2026-05-06 17:17 | 52.48617 | 3.68800 | 9581 ft | 294 kts | 76° |
| 2026-05-06 17:17 | 52.49082 | 3.72077 | 9650 ft | 289 kts | 76° |
| 2026-05-06 17:17 | 52.49541 | 3.75305 | 9875 ft | 292 kts | 76° |
| 2026-05-06 17:17 | 52.50005 | 3.78563 | 9938 ft | 293 kts | 76° |
| 2026-05-06 17:18 | 52.50310 | 3.80723 | 9943 ft | 293 kts | 76° |
| 2026-05-06 17:18 | 52.50769 | 3.83985 | 9946 ft | 293 kts | 76° |
| 2026-05-06 17:18 | 52.51225 | 3.87248 | 9945 ft | 293 kts | 76° |
| 2026-05-06 17:18 | 52.51682 | 3.90518 | 9946 ft | 293 kts | 76° |
| 2026-05-06 17:19 | 52.51893 | 3.93845 | 9925 ft | 294 kts | 92° |
| 2026-05-06 17:19 | 52.51514 | 3.97118 | 9580 ft | 292 kts | 111° |
| 2026-05-06 17:19 | 52.50494 | 3.99922 | 9207 ft | 290 kts | 130° |
| 2026-05-06 17:19 | 52.49068 | 4.02500 | 8782 ft | 288 kts | 132° |
| 2026-05-06 17:20 | 52.47691 | 4.04937 | 8411 ft | 286 kts | 132° |
| 2026-05-06 17:20 | 52.46350 | 4.07295 | 8051 ft | 284 kts | 132° |
| 2026-05-06 17:20 | 52.45016 | 4.09636 | 7675 ft | 282 kts | 132° |
| 2026-05-06 17:20 | 52.43673 | 4.11991 | 7309 ft | 280 kts | 131° |
| 2026-05-06 17:21 | 52.42349 | 4.14314 | 6924 ft | 278 kts | 131° |
| 2026-05-06 17:21 | 52.41031 | 4.16626 | 6569 ft | 276 kts | 131° |
| 2026-05-06 17:21 | 52.39725 | 4.18924 | 6190 ft | 274 kts | 131° |
| 2026-05-06 17:21 | 52.38421 | 4.21211 | 5775 ft | 273 kts | 130° |
| 2026-05-06 17:22 | 52.37107 | 4.23517 | 5356 ft | 271 kts | 130° |
| 2026-05-06 17:22 | 52.35841 | 4.25734 | 4958 ft | 270 kts | 130° |
| 2026-05-06 17:22 | 52.34543 | 4.28002 | 4537 ft | 269 kts | 129° |
| 2026-05-06 17:22 | 52.33327 | 4.30126 | 4145 ft | 266 kts | 130° |
| 2026-05-06 17:23 | 52.32066 | 4.32324 | 3740 ft | 264 kts | 129° |
| 2026-05-06 17:23 | 52.30797 | 4.34537 | 3344 ft | 261 kts | 129° |
| 2026-05-06 17:23 | 52.29559 | 4.36697 | 2936 ft | 259 kts | 129° |
| 2026-05-06 17:23 | 52.28417 | 4.38688 | 2550 ft | 258 kts | 128° |
| 2026-05-06 17:24 | 52.27223 | 4.40601 | 2443 ft | 245 kts | 130° |
| 2026-05-06 17:24 | 52.26068 | 4.42561 | 2309 ft | 233 kts | 128° |
| 2026-05-06 17:24 | 52.24989 | 4.44464 | 2179 ft | 224 kts | 127° |
| 2026-05-06 17:24 | 52.23948 | 4.46312 | 2075 ft | 216 kts | 127° |
| 2026-05-06 17:25 | 52.22960 | 4.48064 | 2001 ft | 209 kts | 127° |
| 2026-05-06 17:25 | 52.22051 | 4.49799 | 1999 ft | 194 kts | 116° |
| 2026-05-06 17:25 | 52.21548 | 4.51828 | 2003 ft | 181 kts | 94° |
| 2026-05-06 17:25 | 52.21530 | 4.53810 | 2023 ft | 171 kts | 76° |
| 2026-05-06 17:26 | 52.21893 | 4.55534 | 2013 ft | 152 kts | 58° |
| 2026-05-06 17:26 | 52.22430 | 4.56937 | 1999 ft | 139 kts | 54° |
| 2026-05-06 17:26 | 52.22931 | 4.58232 | 1995 ft | 133 kts | 54° |
| 2026-05-06 17:26 | 52.23424 | 4.59504 | 1960 ft | 132 kts | 54° |
| 2026-05-06 17:27 | 52.23911 | 4.60764 | 1848 ft | 131 kts | 54° |
| 2026-05-06 17:27 | 52.24397 | 4.62020 | 1698 ft | 130 kts | 54° |
| 2026-05-06 17:27 | 52.24880 | 4.63269 | 1524 ft | 130 kts | 54° |
| 2026-05-06 17:27 | 52.25361 | 4.64514 | 1359 ft | 129 kts | 55° |
| 2026-05-06 17:28 | 52.25843 | 4.65764 | 1180 ft | 130 kts | 54° |
| 2026-05-06 17:28 | 52.26324 | 4.67009 | 1007 ft | 129 kts | 54° |
| 2026-05-06 17:28 | 52.26806 | 4.68258 | 820 ft | 130 kts | 55° |
| 2026-05-06 17:28 | 52.27281 | 4.69492 | 647 ft | 128 kts | 54° |
| 2026-05-06 17:29 | 52.27764 | 4.70737 | 492 ft | 130 kts | 55° |
| 2026-05-06 17:29 | 52.28231 | 4.72007 | 265 ft | 132 kts | 56° |
| 2026-05-06 17:29 | 52.28722 | 4.73253 | 90 ft | 128 kts | 52° |
| 2026-05-06 17:29 | 52.29201 | 4.74447 | 1 ft | 98 kts | 58° |
| 2026-05-06 17:30 | 52.29313 | 4.74764 | 1 ft | 4 kts | 60° |
| 2026-05-06 17:30 | 52.29362 | 4.74904 | -2 ft | 27 kts | 59° |
| 2026-05-06 17:30 | 52.29541 | 4.75316 | -2 ft | 32 kts | 46° |
| 2026-05-06 17:30 | 52.29646 | 4.75327 | -1 ft | 0 kts | 327° |
| 2026-05-06 17:31 | 52.29663 | 4.75310 | -2 ft | 6 kts | 329° |
| 2026-05-06 17:31 | 52.29665 | 4.75308 | -2 ft | 0 kts | 329° |
| 2026-05-06 17:32 | 52.29691 | 4.75289 | -2 ft | 21 kts | 335° |
| 2026-05-06 17:32 | 52.29771 | 4.75378 | -2 ft | 15 kts | 66° |
| 2026-05-06 17:32 | 52.29823 | 4.75540 | -2 ft | 17 kts | 59° |
| 2026-05-06 17:32 | 52.29873 | 4.75676 | -2 ft | 0 kts | 59° |
| 2026-05-06 17:33 | 52.29873 | 4.75677 | -2 ft | 1 kts | 59° |
| 2026-05-06 17:34 | 52.29967 | 4.75929 | -2 ft | 64 kts | 58° |
| 2026-05-06 17:34 | 52.30178 | 4.76460 | -2 ft | 17 kts | 55° |
| 2026-05-06 17:34 | 52.30189 | 4.76488 | -2 ft | 3 kts | 56° |